createdAt,value
2019-05-17T00:01:53.196Z,16.55
2019-05-17T00:04:21.421Z,20.00
2019-05-17T00:06:49.659Z,21.75
2019-05-17T00:09:17.903Z,19.98
2019-05-17T00:11:47.298Z,21.15
2019-05-17T00:14:16.827Z,24.05
2019-05-17T00:16:46.942Z,24.02
2019-05-17T00:19:16.895Z,25.20
2019-05-17T00:21:47.330Z,20.12
2019-05-17T00:24:15.023Z,16.67
2019-05-17T00:26:43.248Z,21.30
2019-05-17T00:29:11.468Z,17.98
2019-05-17T00:31:39.690Z,23.22
2019-05-17T00:34:07.906Z,21.52
2019-05-17T00:36:37.444Z,26.33
2019-05-17T00:39:07.419Z,26.80
2019-05-17T00:41:37.455Z,20.02
2019-05-17T00:44:06.345Z,24.30
2019-05-17T00:46:37.107Z,24.07
2019-05-17T00:49:06.498Z,25.25
2019-05-17T00:51:36.726Z,24.85
2019-05-17T00:54:06.642Z,24.20
2019-05-17T00:56:37.041Z,25.80
2019-05-17T00:59:04.825Z,21.90
2019-05-17T01:01:33.291Z,24.75
2019-05-17T01:04:01.540Z,26.02
2019-05-17T01:06:29.827Z,24.00
2019-05-17T01:09:01.805Z,19.98
2019-05-17T01:11:27.988Z,23.70
2019-05-17T01:13:58.504Z,21.25
2019-05-17T01:16:27.186Z,22.13
2019-05-17T01:18:57.364Z,24.65
2019-05-17T01:21:26.261Z,19.90
2019-05-17T01:23:56.275Z,17.17
2019-05-17T01:26:26.565Z,19.67
2019-05-17T01:28:54.514Z,17.65
2019-05-17T01:31:22.755Z,21.68
2019-05-17T01:33:50.944Z,20.90
2019-05-17T01:36:19.170Z,23.18
2019-05-17T01:38:47.383Z,15.58
2019-05-17T01:41:17.387Z,16.27
2019-05-17T01:43:47.492Z,19.70
2019-05-17T01:46:17.163Z,19.62
2019-05-17T01:48:47.073Z,20.50
2019-05-17T01:51:16.943Z,17.05
2019-05-17T01:53:46.980Z,20.43
2019-05-17T01:56:16.929Z,20.37
2019-05-17T01:58:47.047Z,19.75
2019-05-17T02:01:16.968Z,16.77
2019-05-17T02:03:46.939Z,22.27
2019-05-17T02:06:16.516Z,19.17
2019-05-17T02:08:47.352Z,20.77
2019-05-17T02:11:18.193Z,19.60
2019-05-17T02:13:46.698Z,17.87
2019-05-17T02:16:16.550Z,17.77
2019-05-17T02:18:46.607Z,16.52
2019-05-17T02:21:16.846Z,16.67
2019-05-17T02:23:46.947Z,14.98
2019-05-17T02:26:17.191Z,14.13
2019-05-17T02:28:44.705Z,14.73
2019-05-17T02:31:13.496Z,14.03
2019-05-17T02:33:43.039Z,16.30
2019-05-17T02:36:14.212Z,14.43
2019-05-17T02:38:43.603Z,22.52
2019-05-17T02:41:14.225Z,14.55
2019-05-17T02:43:43.401Z,15.23
2019-05-17T02:46:13.586Z,15.95
2019-05-17T02:48:42.849Z,16.20
2019-05-17T02:51:13.040Z,16.52
2019-05-17T02:53:42.885Z,19.57
2019-05-17T02:56:13.324Z,20.55
2019-05-17T02:58:43.843Z,14.73
2019-05-17T03:01:12.671Z,17.57
2019-05-17T03:03:43.678Z,17.07
2019-05-17T03:06:13.668Z,19.50
2019-05-17T03:08:42.953Z,17.70
2019-05-17T03:11:13.588Z,17.07
2019-05-17T03:13:43.388Z,17.00
2019-05-17T03:16:14.370Z,20.50
2019-05-17T03:18:43.665Z,16.70
2019-05-17T03:21:13.330Z,18.20
2019-05-17T03:23:43.443Z,22.22
2019-05-17T03:26:13.087Z,21.73
2019-05-17T03:28:42.665Z,22.15
2019-05-17T03:31:16.805Z,19.90
2019-05-17T03:33:45.310Z,22.37
2019-05-17T03:36:16.037Z,24.87
2019-05-17T03:38:42.981Z,24.30
2019-05-17T03:41:22.261Z,22.50
2019-05-17T03:43:43.933Z,23.67
2019-05-17T03:46:13.639Z,19.13
2019-05-17T03:48:43.281Z,24.23
2019-05-17T03:51:12.977Z,26.25
2019-05-17T03:53:43.874Z,25.52
2019-05-17T03:56:13.158Z,28.25
2019-05-17T03:58:43.055Z,23.02
2019-05-17T04:01:09.853Z,22.45
2019-05-17T04:03:38.067Z,25.20
2019-05-17T04:06:06.345Z,26.10
2019-05-17T04:08:34.560Z,29.63
2019-05-17T04:11:20.642Z,24.07
2019-05-17T04:13:33.999Z,27.62
2019-05-17T04:16:05.902Z,24.63
2019-05-17T04:18:33.599Z,27.25
2019-05-17T04:21:03.385Z,26.37
2019-05-17T04:23:33.975Z,31.25
2019-05-17T04:26:04.272Z,25.30
2019-05-17T04:28:33.567Z,31.55
2019-05-17T04:31:02.905Z,35.40
2019-05-17T04:33:33.575Z,30.05
2019-05-17T04:36:02.700Z,31.33
2019-05-17T04:38:33.159Z,31.33
2019-05-17T04:41:03.198Z,27.35
2019-05-17T04:43:33.462Z,32.30
2019-05-17T04:46:02.834Z,31.65
2019-05-17T04:48:32.748Z,22.00
2019-05-17T04:51:02.543Z,30.23
2019-05-17T04:53:32.829Z,26.73
2019-05-17T04:56:03.038Z,28.38
2019-05-17T04:58:33.483Z,31.05
2019-05-17T05:01:03.623Z,28.83
2019-05-17T05:03:32.591Z,31.75
2019-05-17T05:06:02.991Z,27.77
2019-05-17T05:08:33.049Z,25.10
2019-05-17T05:11:03.673Z,28.35
2019-05-17T05:13:33.360Z,23.60
2019-05-17T05:16:03.070Z,23.07
2019-05-17T05:18:32.659Z,22.93
2019-05-17T05:21:03.204Z,24.92
2019-05-17T05:23:31.839Z,22.20
2019-05-17T05:26:02.801Z,27.15
2019-05-17T05:28:31.722Z,25.45
2019-05-17T05:31:01.961Z,21.77
2019-05-17T05:33:32.786Z,25.08
2019-05-17T05:36:02.054Z,20.60
2019-05-17T05:38:31.992Z,20.88
2019-05-17T05:41:01.814Z,20.30
2019-05-17T05:43:32.417Z,20.08
2019-05-17T05:46:02.324Z,19.17
2019-05-17T05:48:29.801Z,24.50
2019-05-17T05:50:58.061Z,22.42
2019-05-17T05:53:26.278Z,22.00
2019-05-17T05:55:54.501Z,17.15
2019-05-17T05:58:23.973Z,19.98
2019-05-17T06:00:53.250Z,20.77
2019-05-17T06:03:22.479Z,17.65
2019-05-17T06:05:52.524Z,19.62
2019-05-17T06:08:22.705Z,18.32
2019-05-17T06:10:53.168Z,17.67
2019-05-17T06:13:21.814Z,15.50
2019-05-17T06:15:51.779Z,15.58
2019-05-17T06:18:22.487Z,16.25
2019-05-17T06:20:52.284Z,16.87
2019-05-17T06:23:20.177Z,17.95
2019-05-17T06:25:48.379Z,16.05
2019-05-17T06:28:18.958Z,14.50
2019-05-17T06:30:46.537Z,17.32
2019-05-17T06:33:27.165Z,13.75
2019-05-17T06:35:44.721Z,16.30
2019-05-17T06:38:12.929Z,14.80
2019-05-17T06:40:42.121Z,12.68
2019-05-17T06:43:12.897Z,15.40
2019-05-17T06:45:41.880Z,12.47
2019-05-17T06:48:11.728Z,15.23
2019-05-17T06:50:42.545Z,14.18
2019-05-17T06:53:12.203Z,14.93
2019-05-17T06:55:42.367Z,14.30
2019-05-17T06:58:11.777Z,15.00
2019-05-17T07:00:40.547Z,17.02
2019-05-17T07:03:09.538Z,17.37
2019-05-17T07:05:40.430Z,15.23
2019-05-17T07:08:10.843Z,18.82
2019-05-17T07:10:39.806Z,14.53
2019-05-17T07:13:10.519Z,15.33
2019-05-17T07:15:46.366Z,13.25
2019-05-17T07:18:10.229Z,15.80
2019-05-17T07:20:39.477Z,15.10
2019-05-17T07:23:10.467Z,14.55
2019-05-17T07:25:39.771Z,12.93
2019-05-17T07:28:10.109Z,16.93
2019-05-17T07:30:39.947Z,15.35
2019-05-17T07:33:10.078Z,16.07
2019-05-17T07:35:39.798Z,13.70
2019-05-17T07:38:10.310Z,16.23
2019-05-17T07:40:39.887Z,15.30
2019-05-17T07:43:13.933Z,16.23
2019-05-17T07:45:40.167Z,12.73
2019-05-17T07:48:09.772Z,15.10
2019-05-17T07:50:39.793Z,14.35
2019-05-17T07:53:10.370Z,14.28
2019-05-17T07:55:39.880Z,17.20
2019-05-17T07:58:09.938Z,13.65
2019-05-17T08:00:40.080Z,12.68
2019-05-17T08:03:12.965Z,15.75
2019-05-17T08:05:40.307Z,13.70
2019-05-17T08:08:09.666Z,15.10
2019-05-17T08:10:40.521Z,15.23
2019-05-17T08:13:22.833Z,15.15
2019-05-17T08:15:39.744Z,13.98
2019-05-17T08:18:10.503Z,15.88
2019-05-17T08:20:39.970Z,15.28
2019-05-17T08:23:10.221Z,18.60
2019-05-17T08:25:49.626Z,15.93
2019-05-17T08:28:10.666Z,15.43
2019-05-17T08:30:40.555Z,16.15
2019-05-17T08:33:10.471Z,15.15
2019-05-17T08:35:39.891Z,16.37
2019-05-17T08:38:10.034Z,15.58
2019-05-17T08:40:40.071Z,16.60
2019-05-17T08:43:09.750Z,15.13
2019-05-17T08:45:37.528Z,16.62
2019-05-17T08:48:05.754Z,16.48
2019-05-17T08:50:33.973Z,14.65
2019-05-17T08:53:02.487Z,15.00
2019-05-17T08:55:30.691Z,16.85
2019-05-17T08:58:01.003Z,14.58
2019-05-17T09:00:31.459Z,15.40
2019-05-17T09:03:00.077Z,15.15
2019-05-17T09:05:30.274Z,15.90
2019-05-17T09:08:00.105Z,18.60
2019-05-17T09:10:29.961Z,17.75
2019-05-17T09:12:59.724Z,18.42
2019-05-17T09:15:29.650Z,18.35
2019-05-17T09:18:00.126Z,19.52
2019-05-17T09:20:29.599Z,18.52
2019-05-17T09:22:59.968Z,17.15
2019-05-17T09:25:30.103Z,17.95
2019-05-17T09:27:57.786Z,17.80
2019-05-17T09:30:26.018Z,18.15
2019-05-17T09:32:54.240Z,16.90
2019-05-17T09:35:22.453Z,17.80
2019-05-17T09:37:50.669Z,18.02
2019-05-17T09:40:20.024Z,17.82
2019-05-17T09:42:49.890Z,16.12
2019-05-17T09:45:20.136Z,17.48
2019-05-17T09:47:50.612Z,17.80
2019-05-17T09:50:19.993Z,17.48
2019-05-17T09:52:49.489Z,15.60
2019-05-17T09:55:19.650Z,16.35
2019-05-17T09:57:49.674Z,15.90
2019-05-17T10:00:20.605Z,14.73
2019-05-17T10:02:50.530Z,15.18
2019-05-17T10:05:20.189Z,14.35
2019-05-17T10:07:50.452Z,13.72
2019-05-17T10:10:20.085Z,12.37
2019-05-17T10:12:49.689Z,13.00
2019-05-17T10:15:17.878Z,14.05
2019-05-17T10:17:46.155Z,14.13
2019-05-17T10:20:14.377Z,13.38
2019-05-17T10:22:42.616Z,14.23
2019-05-17T10:25:10.836Z,14.05
2019-05-17T10:27:40.656Z,11.70
2019-05-17T10:30:10.302Z,11.97
2019-05-17T10:32:40.824Z,12.50
2019-05-17T10:35:08.769Z,11.15
2019-05-17T10:37:36.985Z,11.50
2019-05-17T10:40:10.196Z,12.23
2019-05-17T10:42:39.533Z,11.57
2019-05-17T10:45:10.559Z,11.57
2019-05-17T10:47:39.634Z,12.77
2019-05-17T10:50:10.543Z,13.58
2019-05-17T10:52:40.967Z,13.35
2019-05-17T10:55:10.515Z,11.10
2019-05-17T10:57:38.439Z,11.70
2019-05-17T11:00:09.854Z,10.68
2019-05-17T11:02:37.452Z,10.23
2019-05-17T11:05:06.374Z,9.63
2019-05-17T11:07:34.596Z,10.15
2019-05-17T11:10:03.015Z,9.23
2019-05-17T11:12:31.241Z,11.68
2019-05-17T11:15:10.398Z,12.00
2019-05-17T11:17:29.378Z,12.10
2019-05-17T11:19:57.617Z,10.75
2019-05-17T11:22:25.836Z,9.95
2019-05-17T11:24:54.060Z,13.20
2019-05-17T11:27:22.252Z,10.43
2019-05-17T11:29:50.498Z,9.08
2019-05-17T11:32:19.245Z,10.38
2019-05-17T11:34:47.466Z,9.45
2019-05-17T11:37:15.695Z,11.08
2019-05-17T11:39:43.895Z,11.05
2019-05-17T11:42:12.122Z,9.48
2019-05-17T11:44:40.371Z,8.35
2019-05-17T11:47:08.577Z,8.65
2019-05-17T11:49:36.795Z,8.38
2019-05-17T11:52:05.070Z,9.20
2019-05-17T11:54:33.250Z,10.53
2019-05-17T11:57:01.478Z,11.85
2019-05-17T11:59:29.689Z,9.43
2019-05-17T12:01:57.907Z,10.88
2019-05-17T12:04:26.248Z,11.83
2019-05-17T12:06:54.549Z,10.55
2019-05-17T12:09:36.475Z,12.20
2019-05-17T12:11:52.714Z,11.05
2019-05-17T12:14:20.937Z,11.00
2019-05-17T12:16:49.141Z,11.93
2019-05-17T12:19:17.423Z,11.60
2019-05-17T12:21:45.654Z,12.53
2019-05-17T12:24:13.868Z,10.95
2019-05-17T12:26:42.167Z,11.00
2019-05-17T12:29:10.444Z,11.63
2019-05-17T12:31:38.990Z,11.70
2019-05-17T12:34:07.200Z,9.80
2019-05-17T12:36:35.416Z,9.30
2019-05-17T12:39:04.638Z,11.30
2019-05-17T12:41:32.883Z,10.30
2019-05-17T12:44:01.126Z,9.25
2019-05-17T12:46:29.334Z,14.80
2019-05-17T12:48:58.041Z,12.70
2019-05-17T12:51:26.259Z,10.77
2019-05-17T12:53:54.605Z,9.25
2019-05-17T12:56:22.880Z,11.18
2019-05-17T12:58:51.259Z,9.08
2019-05-17T13:01:19.483Z,11.20
2019-05-17T13:03:47.708Z,11.00
2019-05-17T13:06:15.924Z,9.80
2019-05-17T13:08:44.149Z,11.22
2019-05-17T13:11:12.354Z,11.80
2019-05-17T13:13:41.126Z,9.65
2019-05-17T13:16:17.944Z,9.30
2019-05-17T13:18:39.561Z,8.83
2019-05-17T13:21:07.774Z,8.33
2019-05-17T13:23:36.007Z,8.45
2019-05-17T13:26:04.215Z,8.35
2019-05-17T13:28:32.750Z,10.48
2019-05-17T13:31:00.950Z,10.80
2019-05-17T13:33:29.960Z,7.65
2019-05-17T13:35:58.216Z,9.87
2019-05-17T13:38:26.483Z,10.10
2019-05-17T13:40:54.697Z,8.85
2019-05-17T13:43:22.922Z,7.55
2019-05-17T13:45:51.149Z,8.15
2019-05-17T13:48:19.353Z,7.50
2019-05-17T13:50:51.608Z,8.08
2019-05-17T13:53:17.559Z,10.30
2019-05-17T13:55:45.789Z,9.78
2019-05-17T13:58:14.068Z,8.95
2019-05-17T14:00:42.290Z,9.40
2019-05-17T14:03:10.494Z,8.85
2019-05-17T14:05:38.709Z,9.70
2019-05-17T14:08:06.949Z,8.58
2019-05-17T14:10:35.160Z,9.18
2019-05-17T14:13:03.417Z,10.32
2019-05-17T14:15:31.611Z,8.68
2019-05-17T14:17:59.852Z,8.80
2019-05-17T14:20:28.063Z,10.10
2019-05-17T14:22:56.460Z,9.93
2019-05-17T14:25:24.686Z,10.50
2019-05-17T14:27:53.018Z,10.18
2019-05-17T14:30:21.411Z,12.43
2019-05-17T14:32:49.634Z,11.35
2019-05-17T14:35:17.853Z,11.22
2019-05-17T14:37:46.067Z,8.70
2019-05-17T14:40:14.303Z,10.03
2019-05-17T14:42:42.526Z,9.80
2019-05-17T14:45:10.735Z,10.98
2019-05-17T14:47:38.953Z,11.38
2019-05-17T14:50:07.503Z,10.45
2019-05-17T14:52:35.802Z,12.03
2019-05-17T14:55:04.390Z,10.82
2019-05-17T14:57:32.609Z,9.70
2019-05-17T15:00:00.852Z,10.35
2019-05-17T15:02:29.058Z,9.50
2019-05-17T15:04:57.272Z,10.08
2019-05-17T15:07:25.503Z,10.08
2019-05-17T15:09:53.719Z,9.63
2019-05-17T15:12:28.295Z,9.60
2019-05-17T15:14:51.921Z,9.63
2019-05-17T15:17:20.160Z,9.80
2019-05-17T15:19:51.225Z,10.95
2019-05-17T15:22:18.314Z,9.90
2019-05-17T15:24:46.702Z,10.48
2019-05-17T15:27:14.917Z,9.88
2019-05-17T15:29:43.131Z,9.63
2019-05-17T15:32:11.357Z,9.03
2019-05-17T15:34:39.678Z,9.60
2019-05-17T15:37:07.932Z,10.43
2019-05-17T15:39:36.170Z,9.30
2019-05-17T15:42:04.417Z,10.63
2019-05-17T15:44:32.634Z,9.67
2019-05-17T15:47:00.838Z,10.50
2019-05-17T15:49:29.064Z,9.98
2019-05-17T15:51:57.270Z,9.83
2019-05-17T15:54:25.514Z,9.93
2019-05-17T15:56:53.734Z,9.50
2019-05-17T15:59:21.964Z,10.50
2019-05-17T16:01:50.221Z,11.33
2019-05-17T16:04:18.418Z,10.00
2019-05-17T16:06:46.652Z,8.93
2019-05-17T16:09:14.857Z,9.28
2019-05-17T16:11:43.122Z,9.65
2019-05-17T16:14:11.387Z,10.88
2019-05-17T16:16:39.605Z,8.83
2019-05-17T16:19:07.874Z,10.23
2019-05-17T16:21:36.151Z,10.43
2019-05-17T16:24:04.540Z,8.55
2019-05-17T16:26:32.754Z,10.40
2019-05-17T16:29:01.033Z,11.20
2019-05-17T16:31:29.259Z,9.30
2019-05-17T16:33:57.477Z,10.18
2019-05-17T16:36:25.695Z,9.83
2019-05-17T16:38:53.908Z,10.95
2019-05-17T16:41:22.158Z,12.15
2019-05-17T16:43:50.381Z,10.18
2019-05-17T16:46:18.587Z,9.58
2019-05-17T16:48:46.811Z,10.43
2019-05-17T16:51:15.143Z,11.65
2019-05-17T16:53:43.345Z,10.53
2019-05-17T16:56:11.564Z,9.70
2019-05-17T16:58:39.786Z,10.45
2019-05-17T17:01:08.053Z,10.43
2019-05-17T17:03:44.281Z,10.43
2019-05-17T17:06:10.117Z,11.67
2019-05-17T17:08:36.189Z,10.43
2019-05-17T17:11:04.402Z,11.85
2019-05-17T17:13:33.511Z,12.75
2019-05-17T17:16:02.026Z,12.53
2019-05-17T17:18:30.322Z,11.30
2019-05-17T17:20:58.543Z,12.95
2019-05-17T17:23:26.762Z,11.53
2019-05-17T17:25:54.994Z,14.68
2019-05-17T17:28:25.527Z,12.10
2019-05-17T17:30:53.146Z,11.03
2019-05-17T17:33:21.425Z,13.95
2019-05-17T17:35:49.587Z,10.63
2019-05-17T17:38:17.802Z,11.38
2019-05-17T17:40:46.050Z,12.18
2019-05-17T17:43:15.914Z,12.07
2019-05-17T17:45:44.133Z,11.53
2019-05-17T17:48:12.422Z,13.97
2019-05-17T17:50:40.657Z,10.58
2019-05-17T17:53:08.894Z,13.75
2019-05-17T17:55:37.108Z,12.28
2019-05-17T17:58:05.315Z,11.65
2019-05-17T18:00:33.546Z,11.60
2019-05-17T18:03:01.804Z,12.00
2019-05-17T18:05:30.022Z,11.30
2019-05-17T18:07:58.249Z,10.82
2019-05-17T18:10:28.211Z,11.68
2019-05-17T18:12:56.420Z,13.70
2019-05-17T18:15:36.971Z,11.08
2019-05-17T18:18:05.150Z,12.15
2019-05-17T18:20:33.384Z,11.50
2019-05-17T18:23:01.602Z,14.58
2019-05-17T18:25:29.824Z,11.57
2019-05-17T18:27:58.036Z,11.43
2019-05-17T18:30:26.274Z,12.90
2019-05-17T18:32:54.508Z,15.43
2019-05-17T18:35:22.730Z,14.85
2019-05-17T18:37:50.953Z,15.68
2019-05-17T18:40:19.169Z,17.17
2019-05-17T18:42:47.382Z,15.63
2019-05-17T18:45:15.792Z,17.02
2019-05-17T18:47:44.003Z,16.55
2019-05-17T18:50:13.094Z,17.82
2019-05-17T18:52:41.488Z,22.17
2019-05-17T18:55:09.694Z,20.48
2019-05-17T18:57:37.921Z,17.92
2019-05-17T19:02:47.713Z,20.68
2019-05-17T19:05:16.404Z,22.20
2019-05-17T19:07:44.653Z,22.10
2019-05-17T19:10:12.892Z,21.62
2019-05-17T19:12:41.144Z,18.15
2019-05-17T19:15:09.347Z,18.23
2019-05-17T19:17:37.593Z,20.20
2019-05-17T19:20:07.030Z,18.42
2019-05-17T19:22:35.244Z,21.25
2019-05-17T19:25:04.648Z,18.95
2019-05-17T19:27:32.912Z,21.12
2019-05-17T19:30:01.174Z,22.40
2019-05-17T19:32:29.364Z,24.00
2019-05-17T19:34:57.752Z,24.40
2019-05-17T19:37:26.106Z,24.60
2019-05-17T19:39:54.307Z,25.43
2019-05-17T19:42:23.258Z,28.75
2019-05-17T19:44:59.218Z,26.42
2019-05-17T19:47:21.515Z,24.98
2019-05-17T19:49:49.720Z,23.38
2019-05-17T19:52:17.935Z,26.52
2019-05-17T19:54:46.196Z,24.40
2019-05-17T19:57:14.432Z,27.27
2019-05-17T19:59:42.658Z,27.52
2019-05-17T20:02:10.898Z,25.57
2019-05-17T20:04:39.113Z,25.43
2019-05-17T20:07:07.327Z,27.67
2019-05-17T20:09:35.585Z,24.55
2019-05-17T20:12:03.793Z,22.87
2019-05-17T20:14:32.022Z,25.17
2019-05-17T20:17:00.229Z,20.50
2019-05-17T20:19:28.460Z,23.40
2019-05-17T20:21:56.668Z,23.60
2019-05-17T20:24:24.884Z,21.10
2019-05-17T20:26:53.108Z,21.90
2019-05-17T20:29:21.321Z,21.57
2019-05-17T20:31:49.558Z,25.05
2019-05-17T20:34:17.790Z,23.52
2019-05-17T20:36:46.018Z,21.27
2019-05-17T20:39:14.233Z,22.20
2019-05-17T20:41:42.537Z,24.10
2019-05-17T20:44:11.022Z,23.32
2019-05-17T20:46:39.234Z,23.62
2019-05-17T20:49:07.537Z,21.73
2019-05-17T20:51:35.757Z,23.18
2019-05-17T20:54:04.003Z,26.85
2019-05-17T20:56:33.387Z,26.67
2019-05-17T20:59:01.635Z,25.02
2019-05-17T21:01:29.877Z,27.02
2019-05-17T21:03:58.083Z,29.30
2019-05-17T21:06:26.312Z,28.42
2019-05-17T21:08:54.561Z,26.77
2019-05-17T21:11:22.762Z,28.02
2019-05-17T21:13:50.979Z,29.12
2019-05-17T21:16:19.187Z,31.85
2019-05-17T21:18:47.403Z,29.55
2019-05-17T21:21:15.625Z,32.73
2019-05-17T21:23:43.863Z,30.32
2019-05-17T21:26:12.087Z,30.50
2019-05-17T21:28:40.315Z,33.20
2019-05-17T21:31:08.594Z,32.95
2019-05-17T21:33:36.801Z,31.80
2019-05-17T21:36:05.831Z,31.85
2019-05-17T21:38:34.054Z,29.07
2019-05-17T21:41:02.328Z,32.33
2019-05-17T21:43:30.573Z,33.50
2019-05-17T21:46:03.748Z,35.00
2019-05-17T21:48:30.558Z,33.33
2019-05-17T21:50:59.035Z,32.35
2019-05-17T21:53:27.268Z,33.83
2019-05-17T21:55:55.488Z,33.75
2019-05-17T21:58:23.708Z,34.63
2019-05-17T22:01:04.124Z,35.95
2019-05-17T22:03:32.463Z,36.05
2019-05-17T22:06:00.685Z,37.60
2019-05-17T22:08:28.912Z,39.80
2019-05-17T22:10:57.116Z,38.48
2019-05-17T22:13:25.370Z,34.30
2019-05-17T22:15:53.585Z,40.52
2019-05-17T22:18:21.812Z,39.73
2019-05-17T22:20:50.039Z,39.15
2019-05-17T22:23:18.270Z,41.45
2019-05-17T22:25:46.492Z,42.03
2019-05-17T22:28:14.713Z,41.58
2019-05-17T22:30:42.932Z,40.73
2019-05-17T22:33:11.253Z,41.60
2019-05-17T22:35:39.473Z,41.50
2019-05-17T22:38:07.703Z,39.63
2019-05-17T22:40:35.943Z,41.83
2019-05-17T22:43:04.168Z,42.08
2019-05-17T22:45:32.378Z,40.88
2019-05-17T22:48:00.596Z,42.50
2019-05-17T22:50:28.841Z,41.53
2019-05-17T22:52:57.154Z,42.62
2019-05-17T22:55:25.364Z,42.27
2019-05-17T22:57:53.615Z,44.53
2019-05-17T23:00:21.897Z,41.90
2019-05-17T23:02:50.122Z,40.60
2019-05-17T23:05:25.980Z,42.88
2019-05-17T23:07:49.411Z,40.12
2019-05-17T23:10:17.681Z,40.52
2019-05-17T23:12:45.857Z,43.80
2019-05-17T23:15:14.085Z,45.15
2019-05-17T23:17:42.300Z,41.70
2019-05-17T23:20:10.527Z,40.08
2019-05-17T23:22:38.767Z,42.38
2019-05-17T23:25:07.289Z,44.38
2019-05-17T23:27:35.504Z,41.92
2019-05-17T23:30:04.962Z,44.25
2019-05-17T23:32:33.179Z,41.53
2019-05-17T23:35:01.409Z,41.95
2019-05-17T23:37:29.665Z,44.85
2019-05-17T23:39:57.870Z,42.55
2019-05-17T23:42:26.077Z,40.43
2019-05-17T23:44:54.300Z,44.63
2019-05-17T23:47:22.515Z,43.15
2019-05-17T23:49:50.740Z,42.48
2019-05-17T23:52:18.998Z,41.55
2019-05-17T23:54:47.175Z,40.38
2019-05-17T23:57:15.407Z,41.63
2019-05-17T23:59:43.627Z,44.13
